sensor_id;sensor_type;location;lat;lon;timestamp;temperature;humidity
70151;DHT22;57517;43.562;19.540;2024-01-07T00:01:58;281.80;2278.40
70151;DHT22;57517;43.562;19.540;2024-01-07T00:04:25;281.70;2278.40
70151;DHT22;57517;43.562;19.540;2024-01-07T00:06:53;281.80;2278.40
70151;DHT22;57517;43.562;19.540;2024-01-07T00:09:19;281.80;2278.40
70151;DHT22;57517;43.562;19.540;2024-01-07T00:11:44;281.80;2278.40
70151;DHT22;57517;43.562;19.540;2024-01-07T00:14:10;281.80;2278.40
70151;DHT22;57517;43.562;19.540;2024-01-07T00:16:36;281.70;2278.40
70151;DHT22;57517;43.562;19.540;2024-01-07T00:19:02;281.60;2278.40
70151;DHT22;57517;43.562;19.540;2024-01-07T00:21:28;256.90;2252.80
70151;DHT22;57517;43.562;19.540;2024-01-07T00:23:54;256.90;2252.80
70151;DHT22;57517;43.562;19.540;2024-01-07T00:26:20;256.90;2252.80
70151;DHT22;57517;43.562;19.540;2024-01-07T00:28:45;281.60;2278.40
70151;DHT22;57517;43.562;19.540;2024-01-07T00:31:12;281.60;2278.40
70151;DHT22;57517;43.562;19.540;2024-01-07T00:33:38;256.90;2252.80
70151;DHT22;57517;43.562;19.540;2024-01-07T00:36:04;256.90;2252.80
70151;DHT22;57517;43.562;19.540;2024-01-07T00:38:30;256.90;2252.80
70151;DHT22;57517;43.562;19.540;2024-01-07T00:40:55;256.90;2252.80
70151;DHT22;57517;43.562;19.540;2024-01-07T00:43:21;256.90;2252.80
70151;DHT22;57517;43.562;19.540;2024-01-07T00:45:47;256.80;2252.80
70151;DHT22;57517;43.562;19.540;2024-01-07T00:48:14;256.90;2252.80
70151;DHT22;57517;43.562;19.540;2024-01-07T00:50:39;256.90;2252.80
70151;DHT22;57517;43.562;19.540;2024-01-07T00:53:05;256.90;2252.80
70151;DHT22;57517;43.562;19.540;2024-01-07T00:55:31;256.90;2252.80
70151;DHT22;57517;43.562;19.540;2024-01-07T00:57:57;256.90;2252.80
70151;DHT22;57517;43.562;19.540;2024-01-07T01:00:23;256.80;2252.80
70151;DHT22;57517;43.562;19.540;2024-01-07T01:02:48;256.80;2252.80
70151;DHT22;57517;43.562;19.540;2024-01-07T01:05:14;256.80;2252.80
70151;DHT22;57517;43.562;19.540;2024-01-07T01:07:40;256.80;2252.80
70151;DHT22;57517;43.562;19.540;2024-01-07T01:10:06;256.80;2252.80
70151;DHT22;57517;43.562;19.540;2024-01-07T01:12:32;256.80;2252.80
70151;DHT22;57517;43.562;19.540;2024-01-07T01:14:58;256.80;2252.80
70151;DHT22;57517;43.562;19.540;2024-01-07T01:17:24;256.60;2252.80
70151;DHT22;57517;43.562;19.540;2024-01-07T01:19:49;256.60;2252.80
70151;DHT22;57517;43.562;19.540;2024-01-07T01:22:15;256.50;2252.80
70151;DHT22;57517;43.562;19.540;2024-01-07T01:24:41;256.50;2252.80
70151;DHT22;57517;43.562;19.540;2024-01-07T01:27:09;256.40;2252.80
70151;DHT22;57517;43.562;19.540;2024-01-07T01:29:36;256.40;2252.80
70151;DHT22;57517;43.562;19.540;2024-01-07T01:32:02;256.30;2252.80
70151;DHT22;57517;43.562;19.540;2024-01-07T01:34:27;256.40;2252.80
70151;DHT22;57517;43.562;19.540;2024-01-07T01:36:53;256.40;2252.80
70151;DHT22;57517;43.562;19.540;2024-01-07T01:39:19;256.30;2252.80
70151;DHT22;57517;43.562;19.540;2024-01-07T01:41:45;256.30;2252.80
70151;DHT22;57517;43.562;19.540;2024-01-07T01:44:11;256.10;2252.80
70151;DHT22;57517;43.562;19.540;2024-01-07T01:46:36;256.10;2252.80
70151;DHT22;57517;43.562;19.540;2024-01-07T01:49:02;256.00;2252.80
70151;DHT22;57517;43.562;19.540;2024-01-07T01:51:28;256.00;2252.80
70151;DHT22;57517;43.562;19.540;2024-01-07T01:53:54;256.00;2252.80
70151;DHT22;57517;43.562;19.540;2024-01-07T01:56:25;256.00;2252.80
70151;DHT22;57517;43.562;19.540;2024-01-07T01:58:52;256.10;2252.80
70151;DHT22;57517;43.562;19.540;2024-01-07T02:01:18;256.20;2252.80
70151;DHT22;57517;43.562;19.540;2024-01-07T02:03:44;256.20;2252.80
70151;DHT22;57517;43.562;19.540;2024-01-07T02:06:10;256.20;2252.80
70151;DHT22;57517;43.562;19.540;2024-01-07T02:08:38;256.10;2252.80
70151;DHT22;57517;43.562;19.540;2024-01-07T02:11:22;256.00;2252.80
70151;DHT22;57517;43.562;19.540;2024-01-07T02:13:48;256.00;2252.80
70151;DHT22;57517;43.562;19.540;2024-01-07T02:16:15;256.00;2252.80
70151;DHT22;57517;43.562;19.540;2024-01-07T02:18:42;256.00;2252.80
70151;DHT22;57517;43.562;19.540;2024-01-07T02:21:13;256.00;2252.80
70151;DHT22;57517;43.562;19.540;2024-01-07T02:23:39;256.10;2252.80
70151;DHT22;57517;43.562;19.540;2024-01-07T02:26:05;256.00;2252.80
70151;DHT22;57517;43.562;19.540;2024-01-07T02:28:32;256.00;2252.80
70151;DHT22;57517;43.562;19.540;2024-01-07T02:30:58;256.10;2252.80
70151;DHT22;57517;43.562;19.540;2024-01-07T02:33:24;256.20;2252.80
70151;DHT22;57517;43.562;19.540;2024-01-07T02:35:50;256.00;2252.80
70151;DHT22;57517;43.562;19.540;2024-01-07T02:38:16;256.10;2252.80
70151;DHT22;57517;43.562;19.540;2024-01-07T02:40:41;256.00;2252.80
70151;DHT22;57517;43.562;19.540;2024-01-07T02:43:08;256.10;2252.80
70151;DHT22;57517;43.562;19.540;2024-01-07T02:45:33;256.20;2252.80
70151;DHT22;57517;43.562;19.540;2024-01-07T02:47:59;256.10;2252.80
70151;DHT22;57517;43.562;19.540;2024-01-07T02:50:25;256.10;2252.80
70151;DHT22;57517;43.562;19.540;2024-01-07T02:52:51;256.10;2252.80
70151;DHT22;57517;43.562;19.540;2024-01-07T02:55:17;256.20;2252.80
70151;DHT22;57517;43.562;19.540;2024-01-07T02:57:43;256.20;2252.80
70151;DHT22;57517;43.562;19.540;2024-01-07T03:00:09;256.20;2252.80
70151;DHT22;57517;43.562;19.540;2024-01-07T03:02:36;256.20;2252.80
70151;DHT22;57517;43.562;19.540;2024-01-07T03:05:02;256.20;2252.80
70151;DHT22;57517;43.562;19.540;2024-01-07T03:07:28;256.10;2252.80
70151;DHT22;57517;43.562;19.540;2024-01-07T03:09:53;256.20;2252.80
70151;DHT22;57517;43.562;19.540;2024-01-07T03:12:19;256.10;2252.80
70151;DHT22;57517;43.562;19.540;2024-01-07T03:14:45;256.10;2252.80
70151;DHT22;57517;43.562;19.540;2024-01-07T03:17:11;256.20;2252.80
70151;DHT22;57517;43.562;19.540;2024-01-07T03:19:39;256.10;2252.80
70151;DHT22;57517;43.562;19.540;2024-01-07T03:22:06;256.00;2252.80
70151;DHT22;57517;43.562;19.540;2024-01-07T03:24:33;231.30;2252.80
70151;DHT22;57517;43.562;19.540;2024-01-07T03:26:58;231.20;2252.80
70151;DHT22;57517;43.562;19.540;2024-01-07T03:29:24;231.00;2252.80
70151;DHT22;57517;43.562;19.540;2024-01-07T03:31:50;231.10;2252.80
70151;DHT22;57517;43.562;19.540;2024-01-07T03:34:16;231.20;2252.80
70151;DHT22;57517;43.562;19.540;2024-01-07T03:36:42;231.30;2252.80
70151;DHT22;57517;43.562;19.540;2024-01-07T03:39:08;256.00;2252.80
70151;DHT22;57517;43.562;19.540;2024-01-07T03:41:34;256.10;2252.80
70151;DHT22;57517;43.562;19.540;2024-01-07T03:43:59;256.10;2252.80
70151;DHT22;57517;43.562;19.540;2024-01-07T03:46:25;256.10;2252.80
70151;DHT22;57517;43.562;19.540;2024-01-07T03:48:51;256.20;2252.80
70151;DHT22;57517;43.562;19.540;2024-01-07T03:51:17;256.10;2252.80
70151;DHT22;57517;43.562;19.540;2024-01-07T03:53:42;256.20;2252.80
70151;DHT22;57517;43.562;19.540;2024-01-07T03:56:08;256.20;2252.80
70151;DHT22;57517;43.562;19.540;2024-01-07T03:58:34;256.30;2252.80
70151;DHT22;57517;43.562;19.540;2024-01-07T04:01:00;256.30;2252.80
70151;DHT22;57517;43.562;19.540;2024-01-07T04:03:26;256.30;2252.80
70151;DHT22;57517;43.562;19.540;2024-01-07T04:05:52;256.40;2252.80
70151;DHT22;57517;43.562;19.540;2024-01-07T04:08:18;256.40;2252.80
70151;DHT22;57517;43.562;19.540;2024-01-07T04:10:44;256.40;2252.80
70151;DHT22;57517;43.562;19.540;2024-01-07T04:13:10;256.40;2252.80
70151;DHT22;57517;43.562;19.540;2024-01-07T04:15:35;256.40;2252.80
70151;DHT22;57517;43.562;19.540;2024-01-07T04:18:02;256.40;2252.80
70151;DHT22;57517;43.562;19.540;2024-01-07T04:20:31;256.40;2252.80
70151;DHT22;57517;43.562;19.540;2024-01-07T04:22:57;256.40;2252.80
70151;DHT22;57517;43.562;19.540;2024-01-07T04:25:24;256.40;2252.80
70151;DHT22;57517;43.562;19.540;2024-01-07T04:27:50;256.30;2252.80
70151;DHT22;57517;43.562;19.540;2024-01-07T04:30:16;256.40;2252.80
70151;DHT22;57517;43.562;19.540;2024-01-07T04:32:41;256.40;2252.80
70151;DHT22;57517;43.562;19.540;2024-01-07T04:35:07;256.40;2252.80
70151;DHT22;57517;43.562;19.540;2024-01-07T04:37:34;256.20;2252.80
70151;DHT22;57517;43.562;19.540;2024-01-07T04:40:00;231.30;2252.80
70151;DHT22;57517;43.562;19.540;2024-01-07T04:42:26;231.30;2252.80
70151;DHT22;57517;43.562;19.540;2024-01-07T04:44:52;256.00;2252.80
70151;DHT22;57517;43.562;19.540;2024-01-07T04:47:32;256.00;2252.80
70151;DHT22;57517;43.562;19.540;2024-01-07T04:50:02;256.10;2252.80
70151;DHT22;57517;43.562;19.540;2024-01-07T04:52:28;256.20;2252.80
70151;DHT22;57517;43.562;19.540;2024-01-07T04:54:54;256.20;2252.80
70151;DHT22;57517;43.562;19.540;2024-01-07T04:57:21;256.30;2252.80
70151;DHT22;57517;43.562;19.540;2024-01-07T04:59:47;256.30;2252.80
70151;DHT22;57517;43.562;19.540;2024-01-07T05:02:13;256.30;2252.80
70151;DHT22;57517;43.562;19.540;2024-01-07T05:04:39;256.30;2252.80
70151;DHT22;57517;43.562;19.540;2024-01-07T05:07:05;256.30;2252.80
70151;DHT22;57517;43.562;19.540;2024-01-07T05:09:32;256.30;2252.80
70151;DHT22;57517;43.562;19.540;2024-01-07T05:11:58;256.30;2252.80
70151;DHT22;57517;43.562;19.540;2024-01-07T05:14:24;256.30;2252.80
70151;DHT22;57517;43.562;19.540;2024-01-07T05:16:50;256.30;2252.80
70151;DHT22;57517;43.562;19.540;2024-01-07T05:19:16;256.30;2252.80
70151;DHT22;57517;43.562;19.540;2024-01-07T05:21:42;256.30;2252.80
70151;DHT22;57517;43.562;19.540;2024-01-07T05:24:07;256.30;2252.80
70151;DHT22;57517;43.562;19.540;2024-01-07T05:26:40;256.40;2252.80
70151;DHT22;57517;43.562;19.540;2024-01-07T05:29:06;256.40;2252.80
70151;DHT22;57517;43.562;19.540;2024-01-07T05:31:32;256.30;2252.80
70151;DHT22;57517;43.562;19.540;2024-01-07T05:33:58;256.40;2252.80
70151;DHT22;57517;43.562;19.540;2024-01-07T05:36:24;256.40;2252.80
70151;DHT22;57517;43.562;19.540;2024-01-07T05:38:49;256.40;2252.80
70151;DHT22;57517;43.562;19.540;2024-01-07T05:41:15;256.30;2252.80
70151;DHT22;57517;43.562;19.540;2024-01-07T05:43:41;256.40;2252.80
70151;DHT22;57517;43.562;19.540;2024-01-07T05:46:07;256.40;2252.80
70151;DHT22;57517;43.562;19.540;2024-01-07T05:48:43;256.40;2252.80
70151;DHT22;57517;43.562;19.540;2024-01-07T05:51:10;256.40;2252.80
70151;DHT22;57517;43.562;19.540;2024-01-07T05:53:36;256.40;2252.80
70151;DHT22;57517;43.562;19.540;2024-01-07T05:56:01;256.40;2252.80
70151;DHT22;57517;43.562;19.540;2024-01-07T05:58:28;256.40;2252.80
70151;DHT22;57517;43.562;19.540;2024-01-07T06:00:54;256.30;2252.80
70151;DHT22;57517;43.562;19.540;2024-01-07T06:03:20;256.30;2252.80
70151;DHT22;57517;43.562;19.540;2024-01-07T06:05:46;256.30;2252.80
70151;DHT22;57517;43.562;19.540;2024-01-07T06:08:12;256.20;2252.80
70151;DHT22;57517;43.562;19.540;2024-01-07T06:10:41;256.10;2252.80
70151;DHT22;57517;43.562;19.540;2024-01-07T06:13:07;256.10;2252.80
70151;DHT22;57517;43.562;19.540;2024-01-07T06:15:33;256.00;2252.80
70151;DHT22;57517;43.562;19.540;2024-01-07T06:17:59;231.20;2252.80
70151;DHT22;57517;43.562;19.540;2024-01-07T06:20:25;231.30;2252.80
70151;DHT22;57517;43.562;19.540;2024-01-07T06:22:51;231.20;2252.80
70151;DHT22;57517;43.562;19.540;2024-01-07T06:25:17;231.20;2252.80
70151;DHT22;57517;43.562;19.540;2024-01-07T06:27:43;231.30;2252.80
70151;DHT22;57517;43.562;19.540;2024-01-07T06:30:09;256.00;2252.80
70151;DHT22;57517;43.562;19.540;2024-01-07T06:32:35;256.00;2252.80
70151;DHT22;57517;43.562;19.540;2024-01-07T06:35:01;231.30;2252.80
70151;DHT22;57517;43.562;19.540;2024-01-07T06:37:28;231.30;2252.80
70151;DHT22;57517;43.562;19.540;2024-01-07T06:39:56;231.10;2252.80
70151;DHT22;57517;43.562;19.540;2024-01-07T06:42:22;231.10;2252.80
70151;DHT22;57517;43.562;19.540;2024-01-07T06:44:48;231.20;2252.80
70151;DHT22;57517;43.562;19.540;2024-01-07T06:47:13;231.10;2252.80
70151;DHT22;57517;43.562;19.540;2024-01-07T06:49:40;231.10;2252.80
70151;DHT22;57517;43.562;19.540;2024-01-07T06:52:06;231.20;2252.80
70151;DHT22;57517;43.562;19.540;2024-01-07T06:54:31;231.10;2252.80
70151;DHT22;57517;43.562;19.540;2024-01-07T06:56:57;231.10;2252.80
70151;DHT22;57517;43.562;19.540;2024-01-07T06:59:23;231.20;2252.80
70151;DHT22;57517;43.562;19.540;2024-01-07T07:01:49;231.10;2252.80
70151;DHT22;57517;43.562;19.540;2024-01-07T07:04:14;231.20;2252.80
70151;DHT22;57517;43.562;19.540;2024-01-07T07:06:40;231.30;2252.80
70151;DHT22;57517;43.562;19.540;2024-01-07T07:09:06;231.30;2252.80
70151;DHT22;57517;43.562;19.540;2024-01-07T07:11:32;256.00;2252.80
70151;DHT22;57517;43.562;19.540;2024-01-07T07:13:58;256.10;2252.80
70151;DHT22;57517;43.562;19.540;2024-01-07T07:16:24;256.20;2252.80
70151;DHT22;57517;43.562;19.540;2024-01-07T07:18:51;256.30;2252.80
70151;DHT22;57517;43.562;19.540;2024-01-07T07:21:17;256.30;2252.80
70151;DHT22;57517;43.562;19.540;2024-01-07T07:23:42;256.40;2252.80
70151;DHT22;57517;43.562;19.540;2024-01-07T07:26:08;256.50;2252.80
70151;DHT22;57517;43.562;19.540;2024-01-07T07:28:34;256.40;2252.80
70151;DHT22;57517;43.562;19.540;2024-01-07T07:31:00;256.40;2252.80
70151;DHT22;57517;43.562;19.540;2024-01-07T07:33:25;256.50;2252.80
70151;DHT22;57517;43.562;19.540;2024-01-07T07:35:51;256.50;2252.80
70151;DHT22;57517;43.562;19.540;2024-01-07T07:38:17;256.60;2252.80
70151;DHT22;57517;43.562;19.540;2024-01-07T07:40:43;256.60;2252.80
70151;DHT22;57517;43.562;19.540;2024-01-07T07:43:10;256.50;2252.80
70151;DHT22;57517;43.562;19.540;2024-01-07T07:45:36;256.50;2252.80
70151;DHT22;57517;43.562;19.540;2024-01-07T07:48:02;256.60;2252.80
70151;DHT22;57517;43.562;19.540;2024-01-07T07:50:27;256.50;2252.80
70151;DHT22;57517;43.562;19.540;2024-01-07T07:52:53;256.60;2252.80
70151;DHT22;57517;43.562;19.540;2024-01-07T07:55:19;256.60;2252.80
70151;DHT22;57517;43.562;19.540;2024-01-07T07:57:45;256.60;2252.80
70151;DHT22;57517;43.562;19.540;2024-01-07T08:00:12;256.70;2252.80
70151;DHT22;57517;43.562;19.540;2024-01-07T08:02:38;256.70;2252.80
70151;DHT22;57517;43.562;19.540;2024-01-07T08:05:06;256.70;2252.80
70151;DHT22;57517;43.562;19.540;2024-01-07T08:07:32;256.80;2252.80
70151;DHT22;57517;43.562;19.540;2024-01-07T08:09:57;256.90;2252.80
70151;DHT22;57517;43.562;19.540;2024-01-07T08:12:23;256.90;2252.80
70151;DHT22;57517;43.562;19.540;2024-01-07T08:14:49;256.90;2252.80
70151;DHT22;57517;43.562;19.540;2024-01-07T08:17:15;256.90;2252.80
70151;DHT22;57517;43.562;19.540;2024-01-07T08:19:41;256.80;2252.80
70151;DHT22;57517;43.562;19.540;2024-01-07T08:22:07;256.70;2252.80
70151;DHT22;57517;43.562;19.540;2024-01-07T08:24:34;256.70;2252.80
70151;DHT22;57517;43.562;19.540;2024-01-07T08:27:01;256.70;2252.80
70151;DHT22;57517;43.562;19.540;2024-01-07T08:29:28;256.70;2252.80
70151;DHT22;57517;43.562;19.540;2024-01-07T08:31:54;256.70;2252.80
70151;DHT22;57517;43.562;19.540;2024-01-07T08:34:20;256.70;2252.80
70151;DHT22;57517;43.562;19.540;2024-01-07T08:36:45;256.80;2252.80
70151;DHT22;57517;43.562;19.540;2024-01-07T08:39:14;256.90;2252.80
70151;DHT22;57517;43.562;19.540;2024-01-07T08:41:40;256.80;2252.80
70151;DHT22;57517;43.562;19.540;2024-01-07T08:44:06;256.90;2252.80
70151;DHT22;57517;43.562;19.540;2024-01-07T08:46:34;281.60;2278.40
70151;DHT22;57517;43.562;19.540;2024-01-07T08:49:02;281.70;2278.40
70151;DHT22;57517;43.562;19.540;2024-01-07T08:51:28;281.70;2278.40
70151;DHT22;57517;43.562;19.540;2024-01-07T08:53:55;281.70;2278.40
70151;DHT22;57517;43.562;19.540;2024-01-07T08:56:23;281.70;2278.40
70151;DHT22;57517;43.562;19.540;2024-01-07T08:58:48;281.80;2278.40
70151;DHT22;57517;43.562;19.540;2024-01-07T09:01:14;281.80;2278.40
70151;DHT22;57517;43.562;19.540;2024-01-07T09:03:40;281.80;2278.40
70151;DHT22;57517;43.562;19.540;2024-01-07T09:06:07;281.80;2278.40
70151;DHT22;57517;43.562;19.540;2024-01-07T09:08:33;281.80;2278.40
70151;DHT22;57517;43.562;19.540;2024-01-07T09:11:00;281.70;2278.40
70151;DHT22;57517;43.562;19.540;2024-01-07T09:13:27;281.60;2278.40
70151;DHT22;57517;43.562;19.540;2024-01-07T09:15:53;281.60;2278.40
70151;DHT22;57517;43.562;19.540;2024-01-07T09:18:18;256.90;2252.80
70151;DHT22;57517;43.562;19.540;2024-01-07T09:20:44;256.90;2252.80
70151;DHT22;57517;43.562;19.540;2024-01-07T09:23:10;256.90;2252.80
70151;DHT22;57517;43.562;19.540;2024-01-07T09:25:36;256.90;2252.80
70151;DHT22;57517;43.562;19.540;2024-01-07T09:28:01;256.80;2252.80
70151;DHT22;57517;43.562;19.540;2024-01-07T09:30:28;256.90;2252.80
70151;DHT22;57517;43.562;19.540;2024-01-07T09:32:54;281.60;2278.40
70151;DHT22;57517;43.562;19.540;2024-01-07T09:35:19;281.70;2278.40
70151;DHT22;57517;43.562;19.540;2024-01-07T09:37:45;281.80;2278.40
70151;DHT22;57517;43.562;19.540;2024-01-07T09:40:11;281.80;2278.40
70151;DHT22;57517;43.562;19.540;2024-01-07T09:42:37;281.80;2278.40
70151;DHT22;57517;43.562;19.540;2024-01-07T09:45:04;281.90;2278.40
70151;DHT22;57517;43.562;19.540;2024-01-07T09:47:31;282.00;2278.40
70151;DHT22;57517;43.562;19.540;2024-01-07T09:49:57;282.00;2278.40
70151;DHT22;57517;43.562;19.540;2024-01-07T09:52:23;282.00;2278.40
70151;DHT22;57517;43.562;19.540;2024-01-07T09:54:58;282.10;2278.40
70151;DHT22;57517;43.562;19.540;2024-01-07T09:57:25;282.10;2278.40
70151;DHT22;57517;43.562;19.540;2024-01-07T09:59:51;282.20;2278.40
70151;DHT22;57517;43.562;19.540;2024-01-07T10:02:18;282.20;2278.40
70151;DHT22;57517;43.562;19.540;2024-01-07T10:04:44;282.30;2278.40
70151;DHT22;57517;43.562;19.540;2024-01-07T10:07:12;282.30;2278.40
70151;DHT22;57517;43.562;19.540;2024-01-07T10:09:40;282.30;2278.40
70151;DHT22;57517;43.562;19.540;2024-01-07T10:12:11;282.30;2278.40
70151;DHT22;57517;43.562;19.540;2024-01-07T10:14:38;282.40;2278.40
70151;DHT22;57517;43.562;19.540;2024-01-07T10:17:17;282.30;2278.40
70151;DHT22;57517;43.562;19.540;2024-01-07T10:19:44;282.20;2278.40
70151;DHT22;57517;43.562;19.540;2024-01-07T10:22:13;282.00;2278.40
70151;DHT22;57517;43.562;19.540;2024-01-07T10:24:40;282.00;2278.40
70151;DHT22;57517;43.562;19.540;2024-01-07T10:27:07;281.90;2278.40
70151;DHT22;57517;43.562;19.540;2024-01-07T10:29:34;282.00;2278.40
70151;DHT22;57517;43.562;19.540;2024-01-07T10:32:00;282.20;2278.40
70151;DHT22;57517;43.562;19.540;2024-01-07T10:34:36;282.20;2278.40
70151;DHT22;57517;43.562;19.540;2024-01-07T10:37:04;282.20;2278.40
70151;DHT22;57517;43.562;19.540;2024-01-07T10:39:34;282.20;2278.40
70151;DHT22;57517;43.562;19.540;2024-01-07T10:42:00;282.20;2278.40
70151;DHT22;57517;43.562;19.540;2024-01-07T10:44:30;282.20;2278.40
70151;DHT22;57517;43.562;19.540;2024-01-07T10:46:57;282.30;2278.40
70151;DHT22;57517;43.562;19.540;2024-01-07T10:49:24;282.40;2278.40
70151;DHT22;57517;43.562;19.540;2024-01-07T10:52:06;282.50;2278.40
70151;DHT22;57517;43.562;19.540;2024-01-07T10:54:36;307.20;2304.00
70151;DHT22;57517;43.562;19.540;2024-01-07T10:57:09;307.20;2304.00
70151;DHT22;57517;43.562;19.540;2024-01-07T10:59:39;307.40;2304.00
70151;DHT22;57517;43.562;19.540;2024-01-07T11:02:07;307.40;2304.00
70151;DHT22;57517;43.562;19.540;2024-01-07T11:04:54;307.60;2304.00
70151;DHT22;57517;43.562;19.540;2024-01-07T11:10:14;307.90;2304.00
70151;DHT22;57517;43.562;19.540;2024-01-07T11:12:43;307.90;2304.00
70151;DHT22;57517;43.562;19.540;2024-01-07T11:15:09;308.00;2304.00
70151;DHT22;57517;43.562;19.540;2024-01-07T11:20:05;308.10;2304.00
70151;DHT22;57517;43.562;19.540;2024-01-07T11:22:31;308.10;2304.00
70151;DHT22;57517;43.562;19.540;2024-01-07T11:25:01;308.10;2304.00
70151;DHT22;57517;43.562;19.540;2024-01-07T11:27:31;308.10;2304.00
70151;DHT22;57517;43.562;19.540;2024-01-07T11:30:07;308.10;2304.00
70151;DHT22;57517;43.562;19.540;2024-01-07T11:32:35;308.00;2304.00
70151;DHT22;57517;43.562;19.540;2024-01-07T11:35:01;307.90;2304.00
70151;DHT22;57517;43.562;19.540;2024-01-07T11:37:28;307.90;2304.00
70151;DHT22;57517;43.562;19.540;2024-01-07T11:39:57;307.90;2304.00
70151;DHT22;57517;43.562;19.540;2024-01-07T11:42:23;307.90;2304.00
70151;DHT22;57517;43.562;19.540;2024-01-07T11:44:52;308.00;2304.00
70151;DHT22;57517;43.562;19.540;2024-01-07T11:47:19;308.10;2304.00
70151;DHT22;57517;43.562;19.540;2024-01-07T11:49:46;308.10;2304.00
70151;DHT22;57517;43.562;19.540;2024-01-07T11:52:12;308.00;2304.00
70151;DHT22;57517;43.562;19.540;2024-01-07T11:54:39;308.10;2304.00
70151;DHT22;57517;43.562;19.540;2024-01-07T11:57:06;308.10;2304.00
70151;DHT22;57517;43.562;19.540;2024-01-07T11:59:35;332.80;2329.60
70151;DHT22;57517;43.562;19.540;2024-01-07T12:02:02;332.90;2329.60
70151;DHT22;57517;43.562;19.540;2024-01-07T12:04:30;332.90;2329.60
70151;DHT22;57517;43.562;19.540;2024-01-07T12:06:56;332.80;2329.60
70151;DHT22;57517;43.562;19.540;2024-01-07T12:09:22;308.10;2304.00
70151;DHT22;57517;43.562;19.540;2024-01-07T12:11:48;308.10;2304.00
70151;DHT22;57517;43.562;19.540;2024-01-07T12:14:14;332.80;2329.60
70151;DHT22;57517;43.562;19.540;2024-01-07T12:16:40;332.80;2329.60
70151;DHT22;57517;43.562;19.540;2024-01-07T12:19:08;332.80;2329.60
70151;DHT22;57517;43.562;19.540;2024-01-07T12:21:35;332.80;2329.60
70151;DHT22;57517;43.562;19.540;2024-01-07T12:24:01;308.00;2304.00
70151;DHT22;57517;43.562;19.540;2024-01-07T12:26:27;308.00;2304.00
70151;DHT22;57517;43.562;19.540;2024-01-07T12:28:55;307.90;2304.00
70151;DHT22;57517;43.562;19.540;2024-01-07T12:31:23;308.00;2304.00
70151;DHT22;57517;43.562;19.540;2024-01-07T12:33:49;307.90;2304.00
70151;DHT22;57517;43.562;19.540;2024-01-07T12:36:14;307.80;2304.00
70151;DHT22;57517;43.562;19.540;2024-01-07T12:38:40;307.80;2304.00
70151;DHT22;57517;43.562;19.540;2024-01-07T12:41:07;307.60;2304.00
70151;DHT22;57517;43.562;19.540;2024-01-07T12:43:33;307.60;2304.00
70151;DHT22;57517;43.562;19.540;2024-01-07T12:45:59;307.50;2304.00
70151;DHT22;57517;43.562;19.540;2024-01-07T12:48:30;307.60;2304.00
70151;DHT22;57517;43.562;19.540;2024-01-07T12:50:56;307.70;2304.00
70151;DHT22;57517;43.562;19.540;2024-01-07T12:53:22;307.70;2304.00
70151;DHT22;57517;43.562;19.540;2024-01-07T12:55:48;307.60;2304.00
70151;DHT22;57517;43.562;19.540;2024-01-07T12:58:14;307.60;2304.00
70151;DHT22;57517;43.562;19.540;2024-01-07T13:00:42;307.60;2304.00
70151;DHT22;57517;43.562;19.540;2024-01-07T13:03:09;307.60;2304.00
70151;DHT22;57517;43.562;19.540;2024-01-07T13:05:40;307.60;2304.00
70151;DHT22;57517;43.562;19.540;2024-01-07T13:08:07;307.60;2304.00
70151;DHT22;57517;43.562;19.540;2024-01-07T13:10:33;307.50;2304.00
70151;DHT22;57517;43.562;19.540;2024-01-07T13:12:59;307.50;2304.00
70151;DHT22;57517;43.562;19.540;2024-01-07T13:15:25;307.60;2304.00
70151;DHT22;57517;43.562;19.540;2024-01-07T13:17:50;307.60;2304.00
70151;DHT22;57517;43.562;19.540;2024-01-07T13:20:16;307.60;2304.00
70151;DHT22;57517;43.562;19.540;2024-01-07T13:22:48;307.60;2304.00
70151;DHT22;57517;43.562;19.540;2024-01-07T13:25:14;307.50;2304.00
70151;DHT22;57517;43.562;19.540;2024-01-07T13:27:40;307.50;2304.00
70151;DHT22;57517;43.562;19.540;2024-01-07T13:30:10;307.40;2304.00
70151;DHT22;57517;43.562;19.540;2024-01-07T13:32:36;307.50;2304.00
70151;DHT22;57517;43.562;19.540;2024-01-07T13:35:03;307.50;2304.00
70151;DHT22;57517;43.562;19.540;2024-01-07T13:37:29;307.50;2304.00
70151;DHT22;57517;43.562;19.540;2024-01-07T13:39:56;307.50;2304.00
70151;DHT22;57517;43.562;19.540;2024-01-07T13:42:22;307.40;2304.00
70151;DHT22;57517;43.562;19.540;2024-01-07T13:44:48;307.40;2304.00
70151;DHT22;57517;43.562;19.540;2024-01-07T13:47:14;307.40;2304.00
70151;DHT22;57517;43.562;19.540;2024-01-07T13:49:41;307.50;2304.00
70151;DHT22;57517;43.562;19.540;2024-01-07T13:52:07;307.60;2304.00
70151;DHT22;57517;43.562;19.540;2024-01-07T13:54:32;307.60;2304.00
70151;DHT22;57517;43.562;19.540;2024-01-07T13:56:58;307.60;2304.00
70151;DHT22;57517;43.562;19.540;2024-01-07T13:59:25;307.60;2304.00
70151;DHT22;57517;43.562;19.540;2024-01-07T14:01:52;307.60;2304.00
70151;DHT22;57517;43.562;19.540;2024-01-07T14:04:17;307.60;2304.00
70151;DHT22;57517;43.562;19.540;2024-01-07T14:06:43;307.60;2304.00
70151;DHT22;57517;43.562;19.540;2024-01-07T14:09:09;307.60;2304.00
70151;DHT22;57517;43.562;19.540;2024-01-07T14:11:35;307.60;2304.00
70151;DHT22;57517;43.562;19.540;2024-01-07T14:14:01;307.60;2304.00
70151;DHT22;57517;43.562;19.540;2024-01-07T14:16:27;307.40;2304.00
70151;DHT22;57517;43.562;19.540;2024-01-07T14:18:54;307.40;2304.00
70151;DHT22;57517;43.562;19.540;2024-01-07T14:21:20;307.40;2304.00
70151;DHT22;57517;43.562;19.540;2024-01-07T14:23:47;307.40;2304.00
70151;DHT22;57517;43.562;19.540;2024-01-07T14:26:12;307.40;2304.00
70151;DHT22;57517;43.562;19.540;2024-01-07T14:28:38;307.40;2304.00
70151;DHT22;57517;43.562;19.540;2024-01-07T14:31:04;307.40;2304.00
70151;DHT22;57517;43.562;19.540;2024-01-07T14:33:30;307.30;2304.00
70151;DHT22;57517;43.562;19.540;2024-01-07T14:35:56;307.40;2304.00
70151;DHT22;57517;43.562;19.540;2024-01-07T14:38:21;307.30;2304.00